createdAt,value
2017-01-23T00:00:50.153Z,0
2017-01-23T00:02:00.888Z,0
2017-01-23T00:03:10.840Z,0
2017-01-23T00:04:21.265Z,0
2017-01-23T00:05:32.004Z,0
2017-01-23T00:06:41.971Z,0
2017-01-23T00:07:52.742Z,0
2017-01-23T00:09:02.699Z,0
2017-01-23T00:10:13.035Z,0
2017-01-23T00:11:23.392Z,0
2017-01-23T00:12:33.753Z,0
2017-01-23T00:13:44.115Z,0
2017-01-23T00:14:54.455Z,0
2017-01-23T00:16:04.798Z,0
2017-01-23T00:17:15.145Z,0
2017-01-23T00:18:25.916Z,0
2017-01-23T00:19:36.668Z,0
2017-01-23T00:20:47.402Z,0
2017-01-23T00:21:58.154Z,0
2017-01-23T00:23:08.515Z,0
2017-01-23T00:24:18.850Z,0
2017-01-23T00:25:29.588Z,0
2017-01-23T00:26:40.354Z,0
2017-01-23T00:27:51.092Z,0
2017-01-23T00:29:01.830Z,0
2017-01-23T00:30:12.582Z,0
2017-01-23T00:31:23.311Z,0
2017-01-23T00:32:33.649Z,0
2017-01-23T00:33:44.401Z,0
2017-01-23T00:34:55.143Z,0
2017-01-23T00:36:05.512Z,0
2017-01-23T00:37:16.259Z,0
2017-01-23T00:38:26.217Z,0
2017-01-23T00:39:36.961Z,0
2017-01-23T00:40:47.690Z,0
2017-01-23T00:41:58.047Z,0
2017-01-23T00:43:08.803Z,0
2017-01-23T00:44:19.547Z,0
2017-01-23T00:45:30.286Z,0
2017-01-23T00:46:40.643Z,0
2017-01-23T00:47:50.988Z,0
2017-01-23T00:49:01.346Z,0
2017-01-23T00:50:11.306Z,0
2017-01-23T00:51:21.665Z,0
2017-01-23T00:52:32.431Z,0
2017-01-23T00:53:42.386Z,0
2017-01-23T00:54:53.113Z,0
2017-01-23T00:56:03.467Z,0
2017-01-23T00:57:13.861Z,0
2017-01-23T00:58:24.227Z,0
2017-01-23T00:59:34.963Z,0
2017-01-23T01:00:45.313Z,0
2017-01-23T01:01:55.654Z,0
2017-01-23T01:03:05.210Z,0
2017-01-23T01:04:15.946Z,0
2017-01-23T01:05:26.316Z,0
2017-01-23T01:06:36.268Z,0
2017-01-23T01:07:47.000Z,0
2017-01-23T01:08:56.952Z,0
2017-01-23T01:10:07.692Z,0
2017-01-23T01:11:17.651Z,0
2017-01-23T01:12:28.011Z,0
2017-01-23T01:13:38.764Z,0
2017-01-23T01:14:49.509Z,0
2017-01-23T01:16:00.259Z,0
2017-01-23T01:17:09.812Z,0
2017-01-23T01:18:19.765Z,0
2017-01-23T01:19:30.101Z,0
2017-01-23T01:20:40.451Z,0
2017-01-23T01:21:51.204Z,0
2017-01-23T01:23:01.945Z,0
2017-01-23T01:24:12.708Z,0
2017-01-23T01:25:23.445Z,0
2017-01-23T01:26:34.190Z,0
2017-01-23T01:27:44.931Z,0
2017-01-23T01:28:55.673Z,0
2017-01-23T01:30:06.415Z,0
2017-01-23T01:31:17.165Z,0
2017-01-23T01:32:27.149Z,0
2017-01-23T01:33:37.112Z,0
2017-01-23T01:34:47.865Z,0
2017-01-23T01:35:58.629Z,0
2017-01-23T01:37:09.416Z,0
2017-01-23T01:38:20.162Z,0
2017-01-23T01:39:30.912Z,0
2017-01-23T01:40:40.868Z,0
2017-01-23T01:41:51.622Z,0
2017-01-23T01:43:01.981Z,0
2017-01-23T01:44:12.766Z,0
2017-01-23T01:45:23.113Z,0
2017-01-23T01:46:33.891Z,0
2017-01-23T01:47:44.642Z,0
2017-01-23T01:48:55.402Z,0
2017-01-23T01:50:06.146Z,0
2017-01-23T01:51:16.884Z,0
2017-01-23T01:52:26.848Z,0
2017-01-23T01:53:37.195Z,0
2017-01-23T01:54:47.952Z,0
2017-01-23T01:55:58.709Z,0
2017-01-23T01:57:09.067Z,0
2017-01-23T01:58:19.020Z,0
2017-01-23T01:59:29.767Z,0
2017-01-23T02:00:40.506Z,0
2017-01-23T02:01:51.252Z,0
2017-01-23T02:03:01.988Z,0
2017-01-23T02:04:12.734Z,0
2017-01-23T02:05:23.474Z,0
2017-01-23T02:06:33.813Z,0
2017-01-23T02:07:43.763Z,0
2017-01-23T02:08:53.757Z,0
2017-01-23T02:10:04.728Z,0
2017-01-23T02:11:15.470Z,0
2017-01-23T02:12:25.812Z,0
2017-01-23T02:13:36.549Z,0
2017-01-23T02:14:46.880Z,0
2017-01-23T02:15:57.233Z,0
2017-01-23T02:17:07.586Z,0
2017-01-23T02:18:18.344Z,0
2017-01-23T02:19:29.082Z,0
2017-01-23T02:20:39.829Z,0
2017-01-23T02:21:49.779Z,0
2017-01-23T02:23:00.126Z,0
2017-01-23T02:24:10.854Z,0
2017-01-23T02:25:21.604Z,0
2017-01-23T02:26:32.352Z,0
2017-01-23T02:27:42.713Z,0
2017-01-23T02:28:53.057Z,0
2017-01-23T02:30:03.457Z,0
2017-01-23T02:31:14.219Z,0
2017-01-23T02:32:24.989Z,0
2017-01-23T02:33:35.736Z,0
2017-01-23T02:34:46.083Z,0
2017-01-23T02:35:56.840Z,0
2017-01-23T02:37:07.586Z,0
2017-01-23T02:38:17.929Z,0
2017-01-23T02:39:28.695Z,0
2017-01-23T02:40:39.051Z,0
2017-01-23T02:41:49.804Z,0
2017-01-23T02:43:00.179Z,0
2017-01-23T02:44:10.917Z,0
2017-01-23T02:45:21.293Z,0
2017-01-23T02:46:31.653Z,0
2017-01-23T02:47:42.012Z,0
2017-01-23T02:48:52.361Z,0
2017-01-23T02:50:02.707Z,0
2017-01-23T02:51:13.058Z,0
2017-01-23T02:52:23.819Z,0
2017-01-23T02:53:34.168Z,0
2017-01-23T02:54:44.532Z,0
2017-01-23T02:55:54.879Z,0
2017-01-23T02:57:05.617Z,0
2017-01-23T02:58:14.782Z,0
2017-01-23T02:59:25.142Z,0
2017-01-23T03:00:34.701Z,0
2017-01-23T03:01:45.440Z,0
2017-01-23T03:33:22.171Z,0
2017-01-23T03:34:32.902Z,0
2017-01-23T03:35:43.635Z,0
2017-01-23T03:36:53.568Z,0
2017-01-23T03:38:04.326Z,0
2017-01-23T03:39:14.287Z,0
2017-01-23T03:40:24.643Z,0
2017-01-23T03:41:35.382Z,0
2017-01-23T03:42:45.724Z,0
2017-01-23T03:43:56.074Z,0
2017-01-23T03:45:06.830Z,0
2017-01-23T03:46:17.557Z,0
2017-01-23T03:47:27.909Z,0
2017-01-23T03:48:38.644Z,0
2017-01-23T03:49:48.979Z,0
2017-01-23T03:50:59.331Z,0
2017-01-23T03:52:09.676Z,0
2017-01-23T03:53:20.439Z,0
2017-01-23T03:54:31.181Z,0
2017-01-23T03:55:41.142Z,0
2017-01-23T03:56:51.103Z,0
2017-01-23T03:58:01.851Z,0
2017-01-23T03:59:12.593Z,0
2017-01-23T04:00:23.364Z,0
2017-01-23T04:01:34.090Z,0
2017-01-23T04:02:44.063Z,0
2017-01-23T04:03:54.810Z,0
2017-01-23T04:05:04.768Z,0
2017-01-23T04:06:15.144Z,0
2017-01-23T04:07:25.486Z,0
2017-01-23T04:08:35.442Z,0
2017-01-23T04:09:45.805Z,0
2017-01-23T04:10:56.545Z,0
2017-01-23T04:12:07.296Z,0
2017-01-23T04:13:18.030Z,0
2017-01-23T04:14:28.781Z,0
2017-01-23T04:15:39.143Z,0
2017-01-23T04:16:49.485Z,0
2017-01-23T04:17:59.432Z,0
2017-01-23T04:19:09.784Z,0
2017-01-23T04:20:20.510Z,0
2017-01-23T04:21:30.862Z,0
2017-01-23T04:22:41.609Z,0
2017-01-23T04:23:52.372Z,0
2017-01-23T04:25:03.166Z,0
2017-01-23T04:26:13.904Z,0
2017-01-23T04:27:23.446Z,0
2017-01-23T04:28:33.397Z,0
2017-01-23T04:29:43.344Z,0
2017-01-23T04:30:53.687Z,0
2017-01-23T04:32:04.030Z,0
2017-01-23T04:33:14.775Z,0
2017-01-23T04:34:25.111Z,0
2017-01-23T04:35:35.853Z,0
2017-01-23T04:36:45.826Z,0
2017-01-23T04:37:56.571Z,0
2017-01-23T04:39:07.309Z,0
2017-01-23T04:40:18.042Z,0
2017-01-23T04:41:27.607Z,0
2017-01-23T04:42:38.353Z,0
2017-01-23T04:43:48.357Z,0
2017-01-23T04:44:58.697Z,0
2017-01-23T04:46:09.040Z,0
2017-01-23T04:47:19.385Z,0
2017-01-23T04:48:29.732Z,0
2017-01-23T04:49:40.086Z,0
2017-01-23T04:50:50.440Z,0
2017-01-23T04:52:00.401Z,0
2017-01-23T04:53:11.179Z,0
2017-01-23T04:54:21.927Z,0
2017-01-23T04:55:32.673Z,0
2017-01-23T04:56:43.445Z,0
2017-01-23T04:57:53.414Z,0
2017-01-23T04:59:03.804Z,0
2017-01-23T05:00:14.170Z,0
2017-01-23T05:01:24.917Z,0
2017-01-23T05:02:35.654Z,0
2017-01-23T05:03:46.441Z,0
2017-01-23T05:04:57.226Z,0
2017-01-23T05:06:07.973Z,0
2017-01-23T05:07:18.340Z,0
2017-01-23T05:08:29.093Z,0
2017-01-23T05:09:39.443Z,0
2017-01-23T05:10:49.782Z,0
2017-01-23T05:12:00.532Z,0
2017-01-23T05:13:11.291Z,0
2017-01-23T05:14:22.030Z,0
2017-01-23T05:15:32.373Z,0
2017-01-23T05:16:42.728Z,0
2017-01-23T05:17:53.100Z,0
2017-01-23T05:19:03.851Z,0
2017-01-23T05:20:14.188Z,0
2017-01-23T05:21:24.932Z,0
2017-01-23T05:22:35.278Z,0
2017-01-23T05:23:45.620Z,0
2017-01-23T05:24:55.571Z,0
2017-01-23T05:26:06.328Z,0
2017-01-23T05:27:16.682Z,0
2017-01-23T05:28:27.031Z,0
2017-01-23T05:29:37.774Z,0
2017-01-23T05:30:48.509Z,0
2017-01-23T05:31:58.081Z,0
2017-01-23T05:33:08.425Z,0
2017-01-23T05:34:18.776Z,0
2017-01-23T05:35:29.183Z,0
2017-01-23T05:36:39.913Z,0
2017-01-23T05:37:50.292Z,0
2017-01-23T05:39:00.231Z,0
2017-01-23T05:40:10.578Z,0
2017-01-23T05:41:21.319Z,0
2017-01-23T05:42:31.267Z,0
2017-01-23T05:43:40.829Z,0
2017-01-23T05:44:51.581Z,0
2017-01-23T05:46:01.928Z,0
2017-01-23T05:47:12.279Z,0
2017-01-23T05:48:23.006Z,0
2017-01-23T05:49:33.364Z,0
2017-01-23T05:50:43.709Z,0
2017-01-23T05:51:54.470Z,0
2017-01-23T05:53:05.246Z,0
2017-01-23T05:54:15.211Z,0
2017-01-23T05:55:25.556Z,0
2017-01-23T05:56:35.513Z,0
2017-01-23T05:57:46.254Z,0
2017-01-23T05:58:56.997Z,0
2017-01-23T06:00:07.740Z,0
2017-01-23T06:01:17.694Z,0
2017-01-23T06:02:28.431Z,0
2017-01-23T06:03:38.784Z,0
2017-01-23T06:04:49.135Z,0
2017-01-23T06:05:59.872Z,0
2017-01-23T06:07:10.619Z,0
2017-01-23T06:08:21.360Z,0
2017-01-23T06:09:32.113Z,0
2017-01-23T06:10:42.859Z,0
2017-01-23T06:11:53.607Z,0
2017-01-23T06:13:04.352Z,0
2017-01-23T06:14:14.694Z,0
2017-01-23T06:15:25.049Z,0
2017-01-23T06:16:35.798Z,0
2017-01-23T06:17:46.548Z,0
2017-01-23T06:18:56.506Z,0
2017-01-23T06:20:06.863Z,0
2017-01-23T06:21:17.219Z,0
2017-01-23T06:22:27.947Z,0
2017-01-23T06:23:37.891Z,0
2017-01-23T06:24:48.225Z,0
2017-01-23T06:25:58.972Z,0
2017-01-23T06:27:08.922Z,0
2017-01-23T06:28:19.672Z,0
2017-01-23T06:29:30.420Z,0
2017-01-23T06:30:40.768Z,0
2017-01-23T06:31:51.489Z,0
2017-01-23T06:33:01.835Z,0
2017-01-23T06:34:12.168Z,0
2017-01-23T06:35:22.115Z,0
2017-01-23T06:36:32.883Z,0
2017-01-23T06:37:43.238Z,0
2017-01-23T06:38:53.984Z,0
2017-01-23T06:40:04.357Z,0
2017-01-23T06:41:14.689Z,0
2017-01-23T06:42:25.044Z,5
2017-01-23T06:43:34.996Z,5
2017-01-23T06:44:45.328Z,5
2017-01-23T06:45:55.674Z,5
2017-01-23T06:47:06.026Z,5
2017-01-23T06:48:16.370Z,5
2017-01-23T06:49:26.750Z,5
2017-01-23T06:50:37.093Z,5
2017-01-23T06:51:47.438Z,5
2017-01-23T06:52:57.780Z,5
2017-01-23T06:54:08.530Z,5
2017-01-23T06:55:18.887Z,5
2017-01-23T06:56:29.616Z,10
2017-01-23T06:57:40.356Z,10
2017-01-23T06:58:50.689Z,10
2017-01-23T07:00:01.040Z,10
2017-01-23T07:01:11.777Z,10
2017-01-23T07:02:22.119Z,10
2017-01-23T07:03:32.869Z,10
2017-01-23T07:04:43.627Z,10
2017-01-23T07:05:54.364Z,10
2017-01-23T07:07:04.707Z,10
2017-01-23T07:08:15.068Z,15
2017-01-23T07:09:25.400Z,15
2017-01-23T07:10:35.359Z,15
2017-01-23T07:11:46.102Z,15
2017-01-23T07:12:56.448Z,15
2017-01-23T07:14:06.786Z,15
2017-01-23T07:15:17.156Z,15
2017-01-23T07:16:27.490Z,15
2017-01-23T07:17:37.871Z,15
2017-01-23T07:18:48.608Z,15
2017-01-23T07:19:59.342Z,15
2017-01-23T07:21:09.675Z,15
2017-01-23T07:22:20.412Z,15
2017-01-23T07:23:30.360Z,20
2017-01-23T07:24:41.091Z,20
2017-01-23T07:25:51.832Z,25
2017-01-23T07:27:02.566Z,20
2017-01-23T07:28:12.919Z,20
2017-01-23T07:29:23.642Z,20
2017-01-23T07:30:33.991Z,20
2017-01-23T07:31:44.327Z,20
2017-01-23T07:32:54.283Z,25
2017-01-23T07:34:05.030Z,20
2017-01-23T07:35:15.381Z,20
2017-01-23T07:36:25.738Z,25
2017-01-23T07:37:36.084Z,30
2017-01-23T07:38:46.829Z,25
2017-01-23T07:39:57.554Z,30
2017-01-23T07:41:07.520Z,30
2017-01-23T07:42:17.862Z,30
2017-01-23T07:43:27.808Z,30
2017-01-23T07:44:38.134Z,30
2017-01-23T07:45:48.881Z,30
2017-01-23T07:46:59.663Z,30
2017-01-23T07:48:10.400Z,30
2017-01-23T07:49:20.792Z,35
2017-01-23T07:50:31.533Z,35
2017-01-23T07:51:40.705Z,30
2017-01-23T07:52:51.051Z,30
2017-01-23T07:54:01.788Z,30
2017-01-23T07:55:12.545Z,30
2017-01-23T07:56:22.504Z,35
2017-01-23T07:57:33.244Z,35
2017-01-23T07:58:43.610Z,35
2017-01-23T07:59:53.982Z,35
2017-01-23T08:01:04.366Z,40
2017-01-23T08:02:15.126Z,40
2017-01-23T08:03:25.868Z,40
2017-01-23T08:04:36.254Z,40
2017-01-23T08:05:46.616Z,40
2017-01-23T08:06:56.959Z,45
2017-01-23T08:08:06.914Z,40
2017-01-23T08:09:17.651Z,45
2017-01-23T08:10:28.004Z,45
2017-01-23T08:11:38.354Z,45
2017-01-23T08:12:48.325Z,45
2017-01-23T08:13:59.068Z,45
2017-01-23T08:15:08.616Z,45
2017-01-23T08:16:18.959Z,45
2017-01-23T08:17:29.314Z,45
2017-01-23T08:18:39.680Z,45
2017-01-23T08:19:50.426Z,45
2017-01-23T08:21:00.773Z,45
2017-01-23T08:22:10.730Z,45
2017-01-23T08:23:21.467Z,40
2017-01-23T08:24:32.200Z,45
2017-01-23T08:25:42.917Z,45
2017-01-23T08:26:53.671Z,45
2017-01-23T08:28:04.423Z,45
2017-01-23T08:29:14.762Z,45
2017-01-23T08:30:25.507Z,50
2017-01-23T08:31:36.235Z,45
2017-01-23T08:32:46.980Z,45
2017-01-23T08:33:57.718Z,45
2017-01-23T08:35:08.466Z,45
2017-01-23T08:36:19.202Z,45
2017-01-23T08:37:29.938Z,45
2017-01-23T08:38:39.880Z,45
2017-01-23T08:39:50.629Z,45
2017-01-23T08:41:01.370Z,45
2017-01-23T08:42:12.118Z,45
2017-01-23T08:43:22.881Z,45
2017-01-23T08:44:33.606Z,45
2017-01-23T08:45:43.960Z,50
2017-01-23T08:46:54.314Z,50
2017-01-23T08:48:04.662Z,55
2017-01-23T08:49:14.618Z,50
2017-01-23T08:50:24.961Z,55
2017-01-23T08:51:35.306Z,55
2017-01-23T08:52:45.243Z,50
2017-01-23T08:53:55.986Z,50
2017-01-23T08:55:06.342Z,55
2017-01-23T08:56:17.098Z,55
2017-01-23T08:57:27.045Z,60
2017-01-23T08:58:37.786Z,70
2017-01-23T08:59:48.523Z,60
2017-01-23T09:00:58.474Z,65
2017-01-23T09:02:09.231Z,65
2017-01-23T09:03:19.992Z,65
2017-01-23T09:04:30.328Z,60
2017-01-23T09:05:41.078Z,65
2017-01-23T09:06:51.412Z,70
2017-01-23T09:08:01.351Z,65
2017-01-23T09:09:12.088Z,65
2017-01-23T09:10:22.419Z,75
2017-01-23T09:11:32.369Z,75
2017-01-23T09:12:42.698Z,75
2017-01-23T09:13:53.436Z,70
2017-01-23T09:15:03.781Z,80
2017-01-23T09:16:14.537Z,70
2017-01-23T09:17:25.273Z,75
2017-01-23T09:18:36.022Z,70
2017-01-23T09:19:45.958Z,70
2017-01-23T09:20:56.710Z,75
2017-01-23T09:22:07.457Z,75
2017-01-23T09:23:17.419Z,65
2017-01-23T09:24:27.767Z,70
2017-01-23T09:25:38.499Z,75
2017-01-23T09:26:49.264Z,80
2017-01-23T09:27:59.210Z,80
2017-01-23T09:29:09.171Z,75
2017-01-23T09:30:19.944Z,75
2017-01-23T09:31:30.281Z,80
2017-01-23T09:32:40.228Z,75
2017-01-23T09:33:50.575Z,75
2017-01-23T09:35:00.912Z,80
2017-01-23T09:36:10.859Z,80
2017-01-23T09:37:21.199Z,80
2017-01-23T09:38:31.927Z,70
2017-01-23T09:39:42.269Z,70
2017-01-23T09:40:53.046Z,80
2017-01-23T09:42:03.404Z,70
2017-01-23T09:43:13.759Z,70
2017-01-23T09:44:24.510Z,75
2017-01-23T09:45:35.273Z,75
2017-01-23T09:46:45.467Z,70
2017-01-23T09:47:56.205Z,75
2017-01-23T09:49:05.755Z,75
2017-01-23T09:50:16.499Z,85
2017-01-23T09:51:27.238Z,75
2017-01-23T09:52:37.977Z,80
2017-01-23T09:53:48.336Z,85
2017-01-23T09:54:58.693Z,80
2017-01-23T09:56:08.667Z,80
2017-01-23T09:57:19.405Z,80
2017-01-23T09:58:30.144Z,75
2017-01-23T09:59:40.949Z,80
2017-01-23T10:00:50.904Z,100
2017-01-23T10:02:01.651Z,85
2017-01-23T10:03:11.994Z,75
2017-01-23T10:04:22.759Z,80
2017-01-23T10:05:33.502Z,80
2017-01-23T10:06:43.879Z,70
2017-01-23T10:07:54.248Z,70
2017-01-23T10:09:04.993Z,75
2017-01-23T10:10:15.358Z,75
2017-01-23T10:11:26.096Z,70
2017-01-23T10:12:36.860Z,75
2017-01-23T10:13:47.613Z,70
2017-01-23T10:14:57.971Z,75
2017-01-23T10:16:08.741Z,70
2017-01-23T10:17:18.709Z,60
2017-01-23T10:18:28.317Z,60
2017-01-23T10:19:39.068Z,65
2017-01-23T10:20:49.065Z,65
2017-01-23T10:21:59.805Z,60
2017-01-23T10:23:10.817Z,65
2017-01-23T10:24:21.564Z,65
2017-01-23T10:25:31.937Z,70
2017-01-23T10:26:42.292Z,65
2017-01-23T10:27:52.669Z,65
2017-01-23T10:29:02.616Z,65
2017-01-23T10:30:12.576Z,65
2017-01-23T10:31:22.942Z,65
2017-01-23T10:32:33.683Z,70
2017-01-23T10:33:44.446Z,65
2017-01-23T10:34:54.807Z,70
2017-01-23T10:36:05.161Z,80
2017-01-23T10:37:15.506Z,75
2017-01-23T10:38:26.312Z,75
2017-01-23T10:39:37.066Z,80
2017-01-23T10:40:47.822Z,80
2017-01-23T10:41:57.773Z,80
2017-01-23T10:43:08.782Z,80
2017-01-23T10:44:19.124Z,95
2017-01-23T10:45:29.491Z,95
2017-01-23T10:46:39.846Z,90
2017-01-23T10:47:50.603Z,85
2017-01-23T10:49:01.334Z,80
2017-01-23T10:50:11.681Z,80
2017-01-23T10:51:21.646Z,80
2017-01-23T10:52:31.206Z,80
2017-01-23T10:53:41.582Z,90
2017-01-23T10:54:51.936Z,85
2017-01-23T10:56:02.282Z,80
2017-01-23T10:57:12.633Z,80
2017-01-23T10:58:22.995Z,80
2017-01-23T10:59:33.743Z,80
2017-01-23T11:00:44.093Z,75
2017-01-23T11:01:54.834Z,75
2017-01-23T11:03:05.210Z,80
2017-01-23T11:04:15.982Z,80
2017-01-23T11:05:26.382Z,80
2017-01-23T11:06:36.729Z,80
2017-01-23T11:07:47.080Z,70
2017-01-23T11:08:57.869Z,70
2017-01-23T11:10:08.616Z,75
2017-01-23T11:11:19.370Z,80
2017-01-23T11:12:29.726Z,70
2017-01-23T11:13:40.494Z,65
2017-01-23T11:14:51.274Z,65
2017-01-23T11:16:02.025Z,65
2017-01-23T11:17:11.976Z,80
2017-01-23T11:18:22.358Z,75
2017-01-23T11:19:32.709Z,70
2017-01-23T11:20:43.449Z,70
2017-01-23T11:21:54.217Z,65
2017-01-23T11:23:05.019Z,60
2017-01-23T11:24:15.757Z,60
2017-01-23T11:25:26.128Z,65
2017-01-23T11:26:36.482Z,65
2017-01-23T11:27:46.852Z,60
2017-01-23T11:28:57.598Z,60
2017-01-23T11:30:08.341Z,65
2017-01-23T11:31:19.093Z,60
2017-01-23T11:32:29.048Z,60
2017-01-23T11:33:39.820Z,60
2017-01-23T11:34:50.176Z,60
2017-01-23T11:36:00.978Z,65
2017-01-23T11:37:11.346Z,65
2017-01-23T11:38:21.696Z,60
2017-01-23T11:39:32.056Z,65
2017-01-23T11:40:42.436Z,60
2017-01-23T11:41:52.777Z,65
2017-01-23T11:43:03.155Z,65
2017-01-23T11:44:13.530Z,70
2017-01-23T11:45:24.294Z,75
2017-01-23T11:46:35.041Z,70
2017-01-23T11:47:45.797Z,75
2017-01-23T11:48:55.744Z,65
2017-01-23T11:50:06.104Z,60
2017-01-23T11:51:15.276Z,60
2017-01-23T11:52:25.636Z,55
2017-01-23T11:53:36.011Z,55
2017-01-23T11:54:46.997Z,55
2017-01-23T11:55:57.741Z,55
2017-01-23T11:57:08.104Z,50
2017-01-23T11:58:18.457Z,50
2017-01-23T11:59:29.205Z,50
2017-01-23T12:00:39.972Z,50
2017-01-23T12:01:50.737Z,50
2017-01-23T12:03:01.111Z,50
2017-01-23T12:04:10.672Z,50
2017-01-23T12:05:21.018Z,50
2017-01-23T12:06:31.798Z,55
2017-01-23T12:07:42.551Z,55
2017-01-23T12:08:52.920Z,60
2017-01-23T12:10:03.317Z,50
2017-01-23T12:11:13.685Z,55
2017-01-23T12:12:23.637Z,55
2017-01-23T12:13:34.006Z,50
2017-01-23T12:14:44.770Z,50
2017-01-23T12:15:55.528Z,55
2017-01-23T12:17:05.881Z,55
2017-01-23T12:18:16.650Z,55
2017-01-23T12:19:27.442Z,55
2017-01-23T12:20:38.214Z,50
2017-01-23T12:21:48.987Z,50
2017-01-23T12:22:59.801Z,50
2017-01-23T12:24:10.540Z,50
2017-01-23T12:25:20.916Z,50
2017-01-23T12:26:31.282Z,45
2017-01-23T12:27:41.640Z,40
2017-01-23T12:28:52.384Z,45
2017-01-23T12:30:02.724Z,40
2017-01-23T12:31:13.061Z,40
2017-01-23T12:32:23.811Z,45
2017-01-23T12:33:33.763Z,45
2017-01-23T12:34:44.526Z,45
2017-01-23T12:35:54.889Z,45
2017-01-23T12:37:05.630Z,45
2017-01-23T12:38:16.010Z,45
2017-01-23T12:39:26.374Z,40
2017-01-23T12:40:36.734Z,45
2017-01-23T12:41:47.080Z,45
2017-01-23T12:42:57.433Z,40
2017-01-23T12:44:08.163Z,40
2017-01-23T12:45:18.905Z,40
2017-01-23T12:46:28.454Z,40
2017-01-23T12:47:39.069Z,40
2017-01-23T12:48:49.809Z,45
2017-01-23T12:49:59.767Z,40
2017-01-23T12:51:09.726Z,45
2017-01-23T12:52:20.095Z,40
2017-01-23T12:53:30.044Z,40
2017-01-23T12:54:40.387Z,40
2017-01-23T12:55:50.752Z,40
2017-01-23T12:57:01.498Z,45
2017-01-23T12:58:11.850Z,40
2017-01-23T12:59:21.831Z,40
2017-01-23T13:00:31.384Z,35
2017-01-23T13:01:42.150Z,35
2017-01-23T13:02:52.902Z,35
2017-01-23T13:04:03.244Z,40
2017-01-23T13:05:13.586Z,35
2017-01-23T13:06:23.547Z,35
2017-01-23T13:07:34.288Z,40
2017-01-23T13:08:45.045Z,40
2017-01-23T13:09:55.385Z,40
2017-01-23T13:11:05.745Z,40
2017-01-23T13:12:15.694Z,45
2017-01-23T13:13:26.447Z,40
2017-01-23T13:14:37.213Z,40
2017-01-23T13:15:47.562Z,45
2017-01-23T13:16:58.304Z,45
2017-01-23T13:18:08.655Z,40
2017-01-23T13:19:19.015Z,40
2017-01-23T13:20:29.754Z,40
2017-01-23T13:21:39.706Z,40
2017-01-23T13:22:50.071Z,35
2017-01-23T13:24:00.833Z,35
2017-01-23T13:25:10.381Z,35
2017-01-23T13:26:20.726Z,35
2017-01-23T13:27:31.463Z,35
2017-01-23T13:28:42.217Z,35
2017-01-23T13:29:52.566Z,35
2017-01-23T13:31:02.537Z,30
2017-01-23T13:32:12.919Z,35
2017-01-23T13:33:23.688Z,30
2017-01-23T13:34:34.075Z,30
2017-01-23T13:35:44.436Z,30
2017-01-23T13:36:55.207Z,30
2017-01-23T13:38:05.173Z,30
2017-01-23T13:39:15.543Z,30
2017-01-23T13:40:25.937Z,30
2017-01-23T13:41:36.727Z,30
2017-01-23T13:42:47.094Z,25
2017-01-23T13:43:57.473Z,25
2017-01-23T13:45:08.310Z,25
2017-01-23T13:46:19.095Z,25
2017-01-23T13:47:29.067Z,25
2017-01-23T13:48:39.846Z,25
2017-01-23T13:49:50.654Z,25
2017-01-23T13:51:01.432Z,25
2017-01-23T13:52:12.204Z,25
2017-01-23T13:53:22.977Z,30
2017-01-23T13:54:33.353Z,30
2017-01-23T13:55:43.719Z,30
2017-01-23T13:56:54.073Z,30
2017-01-23T13:58:04.819Z,30
2017-01-23T13:59:15.557Z,30
2017-01-23T14:00:25.941Z,25
2017-01-23T14:01:36.944Z,25
2017-01-23T14:02:47.713Z,25
2017-01-23T14:03:58.067Z,20
2017-01-23T14:05:08.821Z,20
2017-01-23T14:06:18.783Z,20
2017-01-23T14:07:29.522Z,20
2017-01-23T14:08:40.275Z,20
2017-01-23T14:09:51.027Z,20
2017-01-23T14:11:01.403Z,20
2017-01-23T14:12:11.363Z,20
2017-01-23T14:13:22.111Z,20
2017-01-23T14:14:32.878Z,20
2017-01-23T14:15:43.650Z,25
2017-01-23T14:16:54.005Z,25
2017-01-23T14:18:04.752Z,25
2017-01-23T14:19:15.114Z,20
2017-01-23T14:20:25.885Z,20
2017-01-23T14:21:36.641Z,20
2017-01-23T14:22:47.388Z,20
2017-01-23T14:23:58.149Z,20
2017-01-23T14:25:08.922Z,20
2017-01-23T14:26:19.679Z,20
2017-01-23T14:27:30.482Z,15
2017-01-23T14:28:41.255Z,15
2017-01-23T14:29:51.643Z,15
2017-01-23T14:31:02.397Z,15
2017-01-23T14:32:12.378Z,15
2017-01-23T14:33:22.715Z,15
2017-01-23T14:34:33.462Z,15
2017-01-23T14:35:44.217Z,10
2017-01-23T14:36:54.553Z,10
2017-01-23T14:38:04.901Z,10
2017-01-23T14:39:15.247Z,10
2017-01-23T14:40:25.608Z,10
2017-01-23T14:41:36.351Z,10
2017-01-23T14:42:47.089Z,10
2017-01-23T14:43:57.835Z,15
2017-01-23T14:45:08.820Z,15
2017-01-23T14:46:19.166Z,15
2017-01-23T14:47:29.904Z,15
2017-01-23T14:48:40.665Z,15
2017-01-23T14:49:51.001Z,15
2017-01-23T14:51:01.772Z,15
2017-01-23T14:52:12.514Z,15
2017-01-23T14:53:23.250Z,15
2017-01-23T14:54:33.988Z,15
2017-01-23T14:55:44.333Z,15
2017-01-23T14:56:55.112Z,10
2017-01-23T14:58:05.861Z,10
2017-01-23T14:59:16.618Z,10
2017-01-23T15:00:27.369Z,10
2017-01-23T15:01:38.155Z,10
2017-01-23T15:02:48.906Z,10
2017-01-23T15:03:59.641Z,10
2017-01-23T15:05:09.976Z,10
2017-01-23T15:06:20.718Z,10
2017-01-23T15:07:31.058Z,10
2017-01-23T15:08:41.410Z,10
2017-01-23T15:09:51.788Z,10
2017-01-23T15:11:02.149Z,5
2017-01-23T15:12:12.906Z,5
2017-01-23T15:13:22.868Z,5
2017-01-23T15:14:33.204Z,5
2017-01-23T15:15:43.946Z,5
2017-01-23T15:16:54.294Z,5
2017-01-23T15:18:04.641Z,5
2017-01-23T15:19:15.379Z,5
2017-01-23T15:20:26.145Z,5
2017-01-23T15:21:36.910Z,5
2017-01-23T15:22:47.654Z,5
2017-01-23T15:23:58.384Z,5
2017-01-23T15:25:08.722Z,5
2017-01-23T15:26:19.463Z,5
2017-01-23T15:27:30.215Z,5
2017-01-23T15:28:40.964Z,5
2017-01-23T15:29:51.707Z,0
2017-01-23T15:31:02.464Z,0
2017-01-23T15:32:13.203Z,0
2017-01-23T15:33:23.959Z,0
2017-01-23T15:34:34.323Z,0
2017-01-23T15:35:45.066Z,0
2017-01-23T15:36:55.819Z,0
2017-01-23T15:38:06.577Z,0
2017-01-23T15:39:16.527Z,0
2017-01-23T15:40:27.306Z,0
2017-01-23T15:41:38.040Z,0
2017-01-23T15:42:48.406Z,0
2017-01-23T15:43:59.146Z,0
2017-01-23T15:45:09.481Z,0
2017-01-23T15:46:20.228Z,0
2017-01-23T15:47:30.580Z,0
2017-01-23T15:48:41.323Z,0
2017-01-23T15:49:52.062Z,0
2017-01-23T15:51:02.791Z,0
2017-01-23T15:52:13.147Z,0
2017-01-23T15:53:23.915Z,0
2017-01-23T15:54:34.660Z,0
2017-01-23T15:55:45.400Z,0
2017-01-23T15:56:56.144Z,0
2017-01-23T15:58:06.907Z,0
2017-01-23T15:59:17.654Z,0
2017-01-23T16:00:28.387Z,0
2017-01-23T16:01:39.140Z,0
2017-01-23T16:02:49.486Z,0
2017-01-23T16:04:00.237Z,0
2017-01-23T16:05:10.603Z,0
2017-01-23T16:06:21.329Z,0
2017-01-23T16:07:32.061Z,0
2017-01-23T16:08:42.812Z,0
2017-01-23T16:09:53.559Z,0
2017-01-23T16:11:04.295Z,0
2017-01-23T16:12:14.637Z,0
2017-01-23T16:13:25.365Z,0
2017-01-23T16:14:36.119Z,0
2017-01-23T16:15:46.856Z,0
2017-01-23T16:16:57.613Z,0
2017-01-23T16:18:08.359Z,0
2017-01-23T16:19:18.717Z,0
2017-01-23T16:20:29.459Z,0
2017-01-23T16:21:39.030Z,0
2017-01-23T16:22:49.382Z,0
2017-01-23T16:23:59.738Z,0
2017-01-23T16:25:10.083Z,0
2017-01-23T16:26:20.831Z,0
2017-01-23T16:27:31.188Z,0
2017-01-23T16:28:41.942Z,0
2017-01-23T16:29:52.752Z,0
2017-01-23T16:31:03.512Z,0
2017-01-23T16:32:14.255Z,0
2017-01-23T16:33:25.012Z,0
2017-01-23T16:34:35.768Z,0
2017-01-23T16:35:46.516Z,0
2017-01-23T16:36:56.881Z,0
2017-01-23T16:38:07.632Z,0
2017-01-23T16:39:18.384Z,0
2017-01-23T16:40:29.130Z,0
2017-01-23T16:41:39.872Z,0
2017-01-23T16:42:50.683Z,0
2017-01-23T16:44:01.032Z,0
2017-01-23T16:45:11.774Z,0
2017-01-23T16:46:22.519Z,0
2017-01-23T16:47:33.272Z,0
2017-01-23T16:48:43.235Z,0
2017-01-23T16:49:53.585Z,0
2017-01-23T16:51:04.336Z,0
2017-01-23T16:52:15.121Z,0
2017-01-23T16:53:25.872Z,0
2017-01-23T16:54:36.227Z,0
2017-01-23T16:55:46.981Z,0
2017-01-23T16:56:57.371Z,0
2017-01-23T16:58:08.131Z,0
2017-01-23T16:59:18.903Z,0
2017-01-23T17:00:29.274Z,0
2017-01-23T17:01:40.021Z,0
2017-01-23T17:02:50.782Z,0
2017-01-23T17:04:01.548Z,0
2017-01-23T17:05:12.305Z,0
2017-01-23T17:06:23.051Z,0
2017-01-23T17:07:33.395Z,0
2017-01-23T17:08:43.746Z,0
2017-01-23T17:09:54.491Z,0
2017-01-23T17:11:04.848Z,0
2017-01-23T17:12:15.606Z,0
2017-01-23T17:13:26.360Z,0
2017-01-23T17:14:37.101Z,0
2017-01-23T17:15:47.921Z,0
2017-01-23T17:16:58.271Z,0
2017-01-23T17:18:08.279Z,0
2017-01-23T17:19:19.025Z,0
2017-01-23T17:20:29.429Z,0
2017-01-23T17:21:40.207Z,0
2017-01-23T17:22:50.955Z,0
2017-01-23T17:24:01.697Z,0
2017-01-23T17:25:12.445Z,0
2017-01-23T17:26:22.795Z,0
2017-01-23T17:27:33.542Z,0
2017-01-23T17:28:44.276Z,0
2017-01-23T17:29:54.230Z,0
2017-01-23T17:31:04.967Z,0
2017-01-23T17:32:15.714Z,0
2017-01-23T17:33:26.454Z,0
2017-01-23T17:34:36.806Z,0